sensor_id;sensor_type;location;lat;lon;timestamp;pressure;altitude;pressure_sealevel;temperature;humidity
48874;BME280;35220;46.204;5.220;2022-07-21T00:01:11;99206.09;;;23.86;50.96
48874;BME280;35220;46.204;5.220;2022-07-21T00:06:12;99212.31;;;23.90;50.98
48874;BME280;35220;46.204;5.220;2022-07-21T00:11:12;99207.78;;;23.91;51.03
48874;BME280;35220;46.204;5.220;2022-07-21T00:16:13;99211.59;;;23.81;51.16
48874;BME280;35220;46.204;5.220;2022-07-21T00:21:13;99201.16;;;23.67;51.48
48874;BME280;35220;46.204;5.220;2022-07-21T00:26:13;99206.38;;;23.55;52.03
48874;BME280;35220;46.204;5.220;2022-07-21T00:31:15;99208.59;;;23.44;52.20
48874;BME280;35220;46.204;5.220;2022-07-21T00:36:17;99202.47;;;23.52;51.95
48874;BME280;35220;46.204;5.220;2022-07-21T00:41:17;99197.78;;;23.49;51.83
48874;BME280;35220;46.204;5.220;2022-07-21T00:46:20;99207.38;;;23.42;52.16
48874;BME280;35220;46.204;5.220;2022-07-21T00:51:20;99208.75;;;23.48;51.94
48874;BME280;35220;46.204;5.220;2022-07-21T01:01:21;99203.34;;;23.65;51.47
48874;BME280;35220;46.204;5.220;2022-07-21T01:06:24;99198.53;;;23.59;51.85
48874;BME280;35220;46.204;5.220;2022-07-21T01:11:25;99192.06;;;23.68;51.54
48874;BME280;35220;46.204;5.220;2022-07-21T01:16:26;99194.81;;;23.89;50.92
48874;BME280;35220;46.204;5.220;2022-07-21T01:26:30;99180.78;;;24.22;50.84
48874;BME280;35220;46.204;5.220;2022-07-21T01:31:30;99184.97;;;24.32;51.09
48874;BME280;35220;46.204;5.220;2022-07-21T01:36:31;99178.91;;;24.44;51.24
48874;BME280;35220;46.204;5.220;2022-07-21T01:41:31;99177.25;;;24.52;51.14
48874;BME280;35220;46.204;5.220;2022-07-21T01:46:36;99177.91;;;24.48;51.36
48874;BME280;35220;46.204;5.220;2022-07-21T01:51:37;99174.81;;;24.46;51.43
48874;BME280;35220;46.204;5.220;2022-07-21T01:56:39;99180.13;;;24.46;51.60
48874;BME280;35220;46.204;5.220;2022-07-21T02:01:39;99178.13;;;24.43;51.22
48874;BME280;35220;46.204;5.220;2022-07-21T02:06:40;99172.09;;;24.34;51.70
48874;BME280;35220;46.204;5.220;2022-07-21T02:11:40;99169.19;;;24.27;51.52
48874;BME280;35220;46.204;5.220;2022-07-21T02:16:40;99175.78;;;24.21;51.37
48874;BME280;35220;46.204;5.220;2022-07-21T02:21:41;99176.03;;;24.07;51.62
48874;BME280;35220;46.204;5.220;2022-07-21T02:26:42;99174.75;;;24.13;51.72
48874;BME280;35220;46.204;5.220;2022-07-21T02:31:42;99181.63;;;24.14;51.47
48874;BME280;35220;46.204;5.220;2022-07-21T02:36:43;99177.09;;;24.15;51.74
48874;BME280;35220;46.204;5.220;2022-07-21T02:41:43;99174.81;;;24.04;51.71
48874;BME280;35220;46.204;5.220;2022-07-21T02:46:43;99173.00;;;23.96;52.11
48874;BME280;35220;46.204;5.220;2022-07-21T02:51:44;99188.06;;;23.92;51.99
48874;BME280;35220;46.204;5.220;2022-07-21T02:56:44;99181.81;;;23.88;51.98
48874;BME280;35220;46.204;5.220;2022-07-21T03:01:45;99169.44;;;23.53;52.55
48874;BME280;35220;46.204;5.220;2022-07-21T03:06:45;99161.50;;;23.45;52.61
48874;BME280;35220;46.204;5.220;2022-07-21T03:11:45;99170.78;;;23.39;52.70
48874;BME280;35220;46.204;5.220;2022-07-21T03:16:46;99168.41;;;23.46;52.60
48874;BME280;35220;46.204;5.220;2022-07-21T03:21:46;99163.72;;;23.43;52.47
48874;BME280;35220;46.204;5.220;2022-07-21T03:26:47;99162.63;;;23.44;52.42
48874;BME280;35220;46.204;5.220;2022-07-21T03:31:47;99163.53;;;23.48;52.55
48874;BME280;35220;46.204;5.220;2022-07-21T03:36:47;99167.16;;;23.43;52.55
48874;BME280;35220;46.204;5.220;2022-07-21T03:41:48;99169.34;;;23.41;52.68
48874;BME280;35220;46.204;5.220;2022-07-21T03:46:48;99171.84;;;23.46;52.62
48874;BME280;35220;46.204;5.220;2022-07-21T03:51:49;99166.19;;;23.48;52.54
48874;BME280;35220;46.204;5.220;2022-07-21T03:56:49;99164.31;;;23.48;52.51
48874;BME280;35220;46.204;5.220;2022-07-21T04:01:50;99163.13;;;23.37;53.17
48874;BME280;35220;46.204;5.220;2022-07-21T04:06:50;99170.47;;;23.40;52.74
48874;BME280;35220;46.204;5.220;2022-07-21T04:11:51;99173.84;;;23.11;53.81
48874;BME280;35220;46.204;5.220;2022-07-21T04:16:51;99174.63;;;23.03;53.76
48874;BME280;35220;46.204;5.220;2022-07-21T04:21:51;99172.47;;;22.96;53.71
48874;BME280;35220;46.204;5.220;2022-07-21T04:26:52;99175.91;;;22.88;54.05
48874;BME280;35220;46.204;5.220;2022-07-21T04:31:53;99172.66;;;22.82;54.18
48874;BME280;35220;46.204;5.220;2022-07-21T04:36:53;99178.09;;;22.94;54.00
48874;BME280;35220;46.204;5.220;2022-07-21T04:41:54;99187.47;;;23.01;54.17
48874;BME280;35220;46.204;5.220;2022-07-21T04:46:54;99192.00;;;22.91;54.41
48874;BME280;35220;46.204;5.220;2022-07-21T04:51:55;99197.03;;;22.67;55.16
48874;BME280;35220;46.204;5.220;2022-07-21T04:56:56;99197.22;;;22.53;55.24
48874;BME280;35220;46.204;5.220;2022-07-21T05:01:56;99194.56;;;22.62;55.05
48874;BME280;35220;46.204;5.220;2022-07-21T05:06:57;99198.47;;;22.64;55.22
48874;BME280;35220;46.204;5.220;2022-07-21T05:11:57;99206.72;;;22.63;55.15
48874;BME280;35220;46.204;5.220;2022-07-21T05:16:57;99205.94;;;22.71;54.96
48874;BME280;35220;46.204;5.220;2022-07-21T05:21:58;99209.06;;;22.64;55.28
48874;BME280;35220;46.204;5.220;2022-07-21T05:26:58;99211.44;;;22.48;56.02
48874;BME280;35220;46.204;5.220;2022-07-21T05:31:59;99215.66;;;22.49;55.93
48874;BME280;35220;46.204;5.220;2022-07-21T05:36:59;99213.16;;;22.44;55.96
48874;BME280;35220;46.204;5.220;2022-07-21T05:42:00;99212.84;;;22.37;56.09
48874;BME280;35220;46.204;5.220;2022-07-21T05:47:00;99215.97;;;22.39;56.03
48874;BME280;35220;46.204;5.220;2022-07-21T05:52:01;99207.19;;;22.47;55.65
48874;BME280;35220;46.204;5.220;2022-07-21T05:57:01;99212.50;;;22.47;55.81
48874;BME280;35220;46.204;5.220;2022-07-21T06:02:03;99221.88;;;22.27;56.58
48874;BME280;35220;46.204;5.220;2022-07-21T06:07:03;99231.53;;;22.23;56.61
48874;BME280;35220;46.204;5.220;2022-07-21T06:12:04;99226.88;;;22.29;56.74
48874;BME280;35220;46.204;5.220;2022-07-21T06:17:05;99238.13;;;22.43;56.36
48874;BME280;35220;46.204;5.220;2022-07-21T06:22:05;99242.34;;;22.44;56.69
48874;BME280;35220;46.204;5.220;2022-07-21T06:27:05;99238.44;;;22.76;55.91
48874;BME280;35220;46.204;5.220;2022-07-21T06:32:06;99245.28;;;22.86;55.49
48874;BME280;35220;46.204;5.220;2022-07-21T06:37:06;99247.19;;;22.94;55.55
48874;BME280;35220;46.204;5.220;2022-07-21T06:42:07;99242.03;;;22.89;55.57
48874;BME280;35220;46.204;5.220;2022-07-21T06:47:08;99239.50;;;23.02;55.31
48874;BME280;35220;46.204;5.220;2022-07-21T06:52:08;99245.47;;;23.07;55.19
48874;BME280;35220;46.204;5.220;2022-07-21T06:57:09;99239.47;;;23.28;54.67
48874;BME280;35220;46.204;5.220;2022-07-21T07:02:09;99232.84;;;23.43;54.51
48874;BME280;35220;46.204;5.220;2022-07-21T07:07:11;99230.44;;;23.59;54.22
48874;BME280;35220;46.204;5.220;2022-07-21T07:12:12;99229.78;;;23.70;54.24
48874;BME280;35220;46.204;5.220;2022-07-21T07:17:16;99232.56;;;23.83;53.67
48874;BME280;35220;46.204;5.220;2022-07-21T07:22:18;99233.38;;;24.04;53.51
48874;BME280;35220;46.204;5.220;2022-07-21T07:27:19;99230.34;;;24.15;53.34
48874;BME280;35220;46.204;5.220;2022-07-21T07:32:19;99230.06;;;24.28;52.99
48874;BME280;35220;46.204;5.220;2022-07-21T07:37:19;99224.38;;;24.39;53.05
48874;BME280;35220;46.204;5.220;2022-07-21T07:42:20;99220.94;;;24.59;52.70
48874;BME280;35220;46.204;5.220;2022-07-21T07:47:20;99225.03;;;24.57;52.74
48874;BME280;35220;46.204;5.220;2022-07-21T07:52:21;99210.78;;;24.74;52.30
48874;BME280;35220;46.204;5.220;2022-07-21T07:57:22;99211.94;;;24.85;52.00
48874;BME280;35220;46.204;5.220;2022-07-21T08:02:22;99220.72;;;24.85;51.92
48874;BME280;35220;46.204;5.220;2022-07-21T08:07:22;99205.53;;;24.98;51.89
48874;BME280;35220;46.204;5.220;2022-07-21T08:12:23;99199.22;;;25.15;51.36
48874;BME280;35220;46.204;5.220;2022-07-21T08:17:23;99201.44;;;25.13;51.08
48874;BME280;35220;46.204;5.220;2022-07-21T08:22:23;99199.28;;;24.94;50.93
48874;BME280;35220;46.204;5.220;2022-07-21T08:27:24;99196.44;;;25.12;50.45
48874;BME280;35220;46.204;5.220;2022-07-21T08:32:24;99193.66;;;25.08;49.60
48874;BME280;35220;46.204;5.220;2022-07-21T08:37:25;99196.09;;;25.13;49.81
48874;BME280;35220;46.204;5.220;2022-07-21T08:42:26;99186.91;;;25.23;49.18
48874;BME280;35220;46.204;5.220;2022-07-21T08:47:27;99193.78;;;25.24;47.84
48874;BME280;35220;46.204;5.220;2022-07-21T08:52:28;99189.84;;;25.30;48.21
48874;BME280;35220;46.204;5.220;2022-07-21T08:57:28;99182.84;;;25.38;48.06
48874;BME280;35220;46.204;5.220;2022-07-21T09:02:33;99182.06;;;25.50;47.47
48874;BME280;35220;46.204;5.220;2022-07-21T09:07:54;99178.38;;;25.54;46.27
48874;BME280;35220;46.204;5.220;2022-07-21T09:13:05;99179.28;;;25.58;47.14
48874;BME280;35220;46.204;5.220;2022-07-21T09:18:09;99174.50;;;25.64;47.28
48874;BME280;35220;46.204;5.220;2022-07-21T09:23:12;99177.94;;;25.77;47.09
48874;BME280;35220;46.204;5.220;2022-07-21T09:28:20;99176.63;;;25.71;46.61
48874;BME280;35220;46.204;5.220;2022-07-21T09:33:23;99178.69;;;25.77;46.08
48874;BME280;35220;46.204;5.220;2022-07-21T09:38:25;99177.91;;;25.89;45.36
48874;BME280;35220;46.204;5.220;2022-07-21T09:48:45;99166.38;;;25.97;45.58
48874;BME280;35220;46.204;5.220;2022-07-21T09:59:00;99164.00;;;26.08;45.25
48874;BME280;35220;46.204;5.220;2022-07-21T10:04:00;99156.69;;;26.33;44.95
48874;BME280;35220;46.204;5.220;2022-07-21T10:09:04;99145.03;;;26.42;44.48
48874;BME280;35220;46.204;5.220;2022-07-21T10:14:05;99155.53;;;26.34;44.58
48874;BME280;35220;46.204;5.220;2022-07-21T10:19:14;99150.56;;;26.49;44.64
48874;BME280;35220;46.204;5.220;2022-07-21T10:24:16;99150.63;;;26.65;44.16
48874;BME280;35220;46.204;5.220;2022-07-21T10:34:56;99141.19;;;26.67;43.61
48874;BME280;35220;46.204;5.220;2022-07-21T10:39:57;99141.25;;;26.71;43.28
48874;BME280;35220;46.204;5.220;2022-07-21T10:44:58;99140.84;;;26.85;43.19
48874;BME280;35220;46.204;5.220;2022-07-21T10:50:00;99143.03;;;26.95;41.97
48874;BME280;35220;46.204;5.220;2022-07-21T11:00:26;99125.75;;;26.92;40.75
48874;BME280;35220;46.204;5.220;2022-07-21T11:05:33;99121.44;;;27.04;41.13
48874;BME280;35220;46.204;5.220;2022-07-21T11:10:35;99124.09;;;27.04;40.71
48874;BME280;35220;46.204;5.220;2022-07-21T11:15:58;99119.63;;;27.24;39.62
48874;BME280;35220;46.204;5.220;2022-07-21T11:21:12;99114.53;;;27.19;39.15
48874;BME280;35220;46.204;5.220;2022-07-21T11:26:16;99106.50;;;27.19;39.93
48874;BME280;35220;46.204;5.220;2022-07-21T11:31:18;99102.53;;;27.28;39.69
48874;BME280;35220;46.204;5.220;2022-07-21T11:36:30;99091.47;;;27.46;39.83
48874;BME280;35220;46.204;5.220;2022-07-21T11:41:32;99078.66;;;27.55;40.17
48874;BME280;35220;46.204;5.220;2022-07-21T11:56:56;99065.31;;;27.94;39.15
48874;BME280;35220;46.204;5.220;2022-07-21T12:02:08;99060.22;;;28.09;39.22
48874;BME280;35220;46.204;5.220;2022-07-21T12:12:12;99051.03;;;28.29;39.10
48874;BME280;35220;46.204;5.220;2022-07-21T12:17:14;99044.72;;;28.41;38.87
48874;BME280;35220;46.204;5.220;2022-07-21T12:22:15;99047.31;;;28.57;38.48
48874;BME280;35220;46.204;5.220;2022-07-21T12:27:17;99048.06;;;28.80;38.45
48874;BME280;35220;46.204;5.220;2022-07-21T12:33:27;99040.03;;;28.80;37.57
48874;BME280;35220;46.204;5.220;2022-07-21T12:38:13;99040.91;;;28.88;36.78
48874;BME280;35220;46.204;5.220;2022-07-21T12:43:19;99033.84;;;29.03;36.80
48874;BME280;35220;46.204;5.220;2022-07-21T12:48:39;99026.06;;;29.21;35.40
48874;BME280;35220;46.204;5.220;2022-07-21T12:53:45;99028.63;;;29.41;34.40
48874;BME280;35220;46.204;5.220;2022-07-21T12:58:46;99024.25;;;29.63;35.64
48874;BME280;35220;46.204;5.220;2022-07-21T13:03:47;99016.06;;;29.82;35.90
48874;BME280;35220;46.204;5.220;2022-07-21T13:08:48;99020.03;;;29.92;35.50
48874;BME280;35220;46.204;5.220;2022-07-21T13:13:50;99010.94;;;30.07;35.15
48874;BME280;35220;46.204;5.220;2022-07-21T13:18:51;99006.13;;;30.24;35.02
48874;BME280;35220;46.204;5.220;2022-07-21T13:23:51;99011.69;;;30.45;34.32
48874;BME280;35220;46.204;5.220;2022-07-21T13:28:51;99009.16;;;30.67;33.94
48874;BME280;35220;46.204;5.220;2022-07-21T13:33:52;99000.59;;;31.06;33.48
48874;BME280;35220;46.204;5.220;2022-07-21T13:38:52;98999.06;;;31.12;33.21
48874;BME280;35220;46.204;5.220;2022-07-21T13:43:53;98989.59;;;31.40;32.64
48874;BME280;35220;46.204;5.220;2022-07-21T13:48:53;98996.22;;;31.68;32.38
48874;BME280;35220;46.204;5.220;2022-07-21T13:53:53;98984.34;;;31.76;31.64
48874;BME280;35220;46.204;5.220;2022-07-21T13:58:54;98997.81;;;31.90;31.20
48874;BME280;35220;46.204;5.220;2022-07-21T14:03:55;98991.72;;;32.15;30.82
48874;BME280;35220;46.204;5.220;2022-07-21T14:08:56;98991.72;;;32.44;29.84
48874;BME280;35220;46.204;5.220;2022-07-21T14:13:56;98976.69;;;32.68;29.45
48874;BME280;35220;46.204;5.220;2022-07-21T14:18:57;98973.19;;;32.92;29.79
48874;BME280;35220;46.204;5.220;2022-07-21T14:23:58;98975.44;;;33.05;29.42
48874;BME280;35220;46.204;5.220;2022-07-21T14:29:17;98966.97;;;33.13;28.99
48874;BME280;35220;46.204;5.220;2022-07-21T14:34:17;98969.94;;;33.37;29.07
48874;BME280;35220;46.204;5.220;2022-07-21T14:39:18;98963.66;;;33.58;28.73
48874;BME280;35220;46.204;5.220;2022-07-21T14:44:18;98960.47;;;33.81;28.63
48874;BME280;35220;46.204;5.220;2022-07-21T14:49:19;98964.59;;;33.93;28.49
48874;BME280;35220;46.204;5.220;2022-07-21T14:54:19;98954.28;;;33.77;28.23
48874;BME280;35220;46.204;5.220;2022-07-21T14:59:20;98954.50;;;33.38;27.54
48874;BME280;35220;46.204;5.220;2022-07-21T15:04:20;98947.13;;;33.45;27.53
48874;BME280;35220;46.204;5.220;2022-07-21T15:09:22;98949.47;;;33.40;26.25
48874;BME280;35220;46.204;5.220;2022-07-21T15:14:22;98937.88;;;33.46;26.67
48874;BME280;35220;46.204;5.220;2022-07-21T15:19:23;98934.78;;;33.44;26.07
48874;BME280;35220;46.204;5.220;2022-07-21T15:24:23;98923.81;;;33.73;26.40
48874;BME280;35220;46.204;5.220;2022-07-21T15:29:24;98926.13;;;33.75;26.62
48874;BME280;35220;46.204;5.220;2022-07-21T15:34:24;98915.22;;;33.89;26.65
48874;BME280;35220;46.204;5.220;2022-07-21T15:39:24;98918.19;;;34.02;26.59
48874;BME280;35220;46.204;5.220;2022-07-21T15:44:25;98931.69;;;34.05;26.36
48874;BME280;35220;46.204;5.220;2022-07-21T15:49:25;98923.59;;;34.02;26.09
48874;BME280;35220;46.204;5.220;2022-07-21T15:54:26;98911.56;;;34.10;25.88
48874;BME280;35220;46.204;5.220;2022-07-21T15:59:26;98904.22;;;34.10;25.86
48874;BME280;35220;46.204;5.220;2022-07-21T16:04:39;98917.44;;;34.01;25.29
48874;BME280;35220;46.204;5.220;2022-07-21T16:09:41;98893.94;;;33.91;25.74
48874;BME280;35220;46.204;5.220;2022-07-21T16:14:42;98887.00;;;33.94;25.43
48874;BME280;35220;46.204;5.220;2022-07-21T16:19:43;98884.66;;;33.96;25.35
48874;BME280;35220;46.204;5.220;2022-07-21T16:24:43;98888.03;;;34.07;25.23
48874;BME280;35220;46.204;5.220;2022-07-21T16:29:44;98886.44;;;34.13;25.52
48874;BME280;35220;46.204;5.220;2022-07-21T16:34:44;98876.19;;;34.35;25.25
48874;BME280;35220;46.204;5.220;2022-07-21T16:39:45;98873.09;;;34.37;24.84
48874;BME280;35220;46.204;5.220;2022-07-21T16:44:46;98872.25;;;34.43;24.98
48874;BME280;35220;46.204;5.220;2022-07-21T16:49:46;98872.09;;;34.58;24.80
48874;BME280;35220;46.204;5.220;2022-07-21T16:54:47;98880.47;;;34.71;24.64
48874;BME280;35220;46.204;5.220;2022-07-21T16:59:47;98872.25;;;34.78;24.31
48874;BME280;35220;46.204;5.220;2022-07-21T17:04:47;98879.25;;;34.75;24.88
48874;BME280;35220;46.204;5.220;2022-07-21T17:09:48;98879.56;;;34.81;24.96
48874;BME280;35220;46.204;5.220;2022-07-21T17:14:49;98867.66;;;34.75;25.11
48874;BME280;35220;46.204;5.220;2022-07-21T17:19:49;98866.19;;;34.70;24.58
48874;BME280;35220;46.204;5.220;2022-07-21T17:24:50;98866.91;;;34.74;24.52
48874;BME280;35220;46.204;5.220;2022-07-21T17:29:50;98869.47;;;34.85;24.14
48874;BME280;35220;46.204;5.220;2022-07-21T17:34:51;98869.50;;;34.81;24.11
48874;BME280;35220;46.204;5.220;2022-07-21T17:39:51;98871.00;;;34.86;24.33
48874;BME280;35220;46.204;5.220;2022-07-21T17:44:53;98863.47;;;35.01;24.19
48874;BME280;35220;46.204;5.220;2022-07-21T17:49:55;98865.78;;;35.30;24.39
48874;BME280;35220;46.204;5.220;2022-07-21T17:54:55;98857.09;;;35.66;24.08
48874;BME280;35220;46.204;5.220;2022-07-21T17:59:56;98857.66;;;36.04;24.30
48874;BME280;35220;46.204;5.220;2022-07-21T18:04:56;98852.84;;;36.35;24.53
48874;BME280;35220;46.204;5.220;2022-07-21T18:09:56;98850.06;;;36.39;24.51
48874;BME280;35220;46.204;5.220;2022-07-21T18:14:57;98856.44;;;36.49;24.75
48874;BME280;35220;46.204;5.220;2022-07-21T18:19:58;98851.81;;;36.49;24.75
48874;BME280;35220;46.204;5.220;2022-07-21T18:24:59;98851.50;;;36.44;24.58
48874;BME280;35220;46.204;5.220;2022-07-21T18:29:59;98857.31;;;36.02;25.07
48874;BME280;35220;46.204;5.220;2022-07-21T18:35:00;98855.66;;;35.61;25.15
48874;BME280;35220;46.204;5.220;2022-07-21T18:40:00;98849.31;;;35.17;25.70
48874;BME280;35220;46.204;5.220;2022-07-21T18:45:01;98848.25;;;34.80;25.93
48874;BME280;35220;46.204;5.220;2022-07-21T18:50:03;98861.66;;;34.56;26.36
48874;BME280;35220;46.204;5.220;2022-07-21T18:55:06;98860.88;;;34.59;26.21
48874;BME280;35220;46.204;5.220;2022-07-21T19:00:10;98861.63;;;34.25;26.66
48874;BME280;35220;46.204;5.220;2022-07-21T19:05:12;98854.28;;;33.77;27.11
48874;BME280;35220;46.204;5.220;2022-07-21T19:10:15;98854.50;;;33.48;27.57
48874;BME280;35220;46.204;5.220;2022-07-21T19:15:17;98857.88;;;32.93;28.35
48874;BME280;35220;46.204;5.220;2022-07-21T19:20:18;98861.19;;;32.16;29.26
48874;BME280;35220;46.204;5.220;2022-07-21T19:25:19;98867.25;;;31.30;30.19
48874;BME280;35220;46.204;5.220;2022-07-21T19:30:20;98862.06;;;30.82;30.93
48874;BME280;35220;46.204;5.220;2022-07-21T19:35:21;98860.31;;;30.38;31.67
48874;BME280;35220;46.204;5.220;2022-07-21T19:40:26;98866.56;;;30.01;32.19
48874;BME280;35220;46.204;5.220;2022-07-21T19:45:30;98871.59;;;29.61;33.01
48874;BME280;35220;46.204;5.220;2022-07-21T19:50:30;98874.03;;;29.36;33.46
48874;BME280;35220;46.204;5.220;2022-07-21T19:55:31;98870.66;;;29.09;33.83
48874;BME280;35220;46.204;5.220;2022-07-21T20:00:31;98876.13;;;28.86;34.56
48874;BME280;35220;46.204;5.220;2022-07-21T20:05:32;98869.75;;;28.67;34.61
48874;BME280;35220;46.204;5.220;2022-07-21T20:10:33;98873.25;;;28.44;35.56
48874;BME280;35220;46.204;5.220;2022-07-21T20:15:34;98876.44;;;28.27;36.07
48874;BME280;35220;46.204;5.220;2022-07-21T20:20:35;98870.47;;;28.11;36.35
48874;BME280;35220;46.204;5.220;2022-07-21T20:25:37;98874.00;;;27.92;36.66
48874;BME280;35220;46.204;5.220;2022-07-21T20:30:37;98869.13;;;27.78;36.75
48874;BME280;35220;46.204;5.220;2022-07-21T20:35:38;98866.34;;;27.71;37.09
48874;BME280;35220;46.204;5.220;2022-07-21T20:40:39;98871.34;;;27.72;36.61
48874;BME280;35220;46.204;5.220;2022-07-21T20:45:41;98866.34;;;27.71;37.03
48874;BME280;35220;46.204;5.220;2022-07-21T20:50:41;98861.38;;;27.49;37.47
48874;BME280;35220;46.204;5.220;2022-07-21T20:55:43;98862.31;;;27.38;38.08
48874;BME280;35220;46.204;5.220;2022-07-21T21:00:43;98866.00;;;27.29;38.48
48874;BME280;35220;46.204;5.220;2022-07-21T21:05:44;98860.84;;;27.21;38.41
48874;BME280;35220;46.204;5.220;2022-07-21T21:10:46;98853.09;;;27.16;38.84
48874;BME280;35220;46.204;5.220;2022-07-21T21:15:46;98851.78;;;27.06;39.25
48874;BME280;35220;46.204;5.220;2022-07-21T21:20:47;98849.31;;;26.97;39.46
48874;BME280;35220;46.204;5.220;2022-07-21T21:25:47;98840.94;;;26.99;39.02
48874;BME280;35220;46.204;5.220;2022-07-21T21:30:49;98830.66;;;27.01;39.36
48874;BME280;35220;46.204;5.220;2022-07-21T21:35:51;98839.38;;;26.98;39.11
48874;BME280;35220;46.204;5.220;2022-07-21T21:40:51;98834.47;;;27.00;39.37
48874;BME280;35220;46.204;5.220;2022-07-21T21:45:51;98833.00;;;27.02;39.50
48874;BME280;35220;46.204;5.220;2022-07-21T21:50:52;98833.69;;;26.99;39.34
48874;BME280;35220;46.204;5.220;2022-07-21T21:55:52;98831.28;;;26.94;39.57
48874;BME280;35220;46.204;5.220;2022-07-21T22:00:53;98823.69;;;26.96;39.53
48874;BME280;35220;46.204;5.220;2022-07-21T22:05:53;98821.16;;;27.03;39.42
48874;BME280;35220;46.204;5.220;2022-07-21T22:10:54;98815.25;;;26.94;39.87
48874;BME280;35220;46.204;5.220;2022-07-21T22:15:54;98818.75;;;26.98;39.90
48874;BME280;35220;46.204;5.220;2022-07-21T22:20:55;98816.63;;;26.68;40.58
48874;BME280;35220;46.204;5.220;2022-07-21T22:25:55;98811.28;;;26.68;40.53
48874;BME280;35220;46.204;5.220;2022-07-21T22:30:56;98801.59;;;26.80;40.28
48874;BME280;35220;46.204;5.220;2022-07-21T22:35:56;98799.06;;;26.87;40.39
48874;BME280;35220;46.204;5.220;2022-07-21T22:40:56;98787.41;;;26.76;40.54
48874;BME280;35220;46.204;5.220;2022-07-21T22:45:57;98790.09;;;26.76;40.30
48874;BME280;35220;46.204;5.220;2022-07-21T22:50:58;98783.31;;;26.82;40.33
48874;BME280;35220;46.204;5.220;2022-07-21T22:55:58;98780.63;;;26.82;40.38
48874;BME280;35220;46.204;5.220;2022-07-21T23:01:00;98785.16;;;26.78;40.62
48874;BME280;35220;46.204;5.220;2022-07-21T23:06:00;98776.63;;;26.72;40.50
48874;BME280;35220;46.204;5.220;2022-07-21T23:11:00;98776.06;;;26.63;40.81
48874;BME280;35220;46.204;5.220;2022-07-21T23:16:01;98766.69;;;26.53;41.07
48874;BME280;35220;46.204;5.220;2022-07-21T23:21:01;98773.63;;;26.38;41.23
48874;BME280;35220;46.204;5.220;2022-07-21T23:26:02;98771.97;;;26.14;41.84
48874;BME280;35220;46.204;5.220;2022-07-21T23:31:03;98768.56;;;25.82;42.52
48874;BME280;35220;46.204;5.220;2022-07-21T23:36:04;98778.44;;;25.65;42.98
48874;BME280;35220;46.204;5.220;2022-07-21T23:41:05;98773.56;;;25.51;43.28
48874;BME280;35220;46.204;5.220;2022-07-21T23:46:05;98777.03;;;25.23;43.83
48874;BME280;35220;46.204;5.220;2022-07-21T23:51:05;98777.00;;;25.08;44.51
48874;BME280;35220;46.204;5.220;2022-07-21T23:56:06;98780.06;;;24.53;46.58
